Terminal Aerodrome Forecast
Issued by NWS

Home | Current Version | Previous Version | Graphics & Text | Print | Product List | Glossary On
Versions: 1 2 3 4 5 6 7 8 9 10 11 12 13 14 15 16 17 18 19 20 21 22 23 24 25 26 27 28 29 30 31 32 33 34 35 36 37 38
912
FTUS43 KGRB 101730
TAFATW
TAF
KATW 101730Z 1018/1118 32009KT P6SM BKN015
      TEMPO 1018/1021 SCT015 OVC035
     FM102100 32009KT P6SM BKN029
     FM102200 30004KT P6SM BKN060
     FM111100 18005KT 3SM -SN OVC017
     FM111400 19006KT 2SM -SN OVC011=

USA.gov is the U.S. government's official web portal to all federal, state and local government web resources and services.